createdAt,value
2023-01-28T00:07:02.713Z,0.37
2023-01-28T00:17:09.089Z,0.43
2023-01-28T00:27:15.338Z,0.41
2023-01-28T00:37:21.638Z,0.27
2023-01-28T00:47:27.901Z,0.73
2023-01-28T00:57:35.139Z,0.60
2023-01-28T01:07:44.813Z,0.63
2023-01-28T01:17:51.956Z,0.45
2023-01-28T01:27:58.225Z,0.61
2023-01-28T01:38:04.754Z,0.62
2023-01-28T01:48:19.806Z,0.78
2023-01-28T01:58:31.468Z,0.84
2023-01-28T02:08:37.793Z,0.95
2023-01-28T02:18:44.107Z,0.58
2023-01-28T02:29:04.993Z,0.57
2023-01-28T02:39:20.606Z,0.73
2023-01-28T02:49:33.083Z,0.83
2023-01-28T03:00:05.648Z,0.60
2023-01-28T03:10:17.623Z,0.43
2023-01-28T03:20:45.415Z,0.81
2023-01-28T03:31:33.545Z,0.70
2023-01-28T03:41:39.915Z,0.51
2023-01-28T03:51:47.426Z,0.50
2023-01-28T04:01:53.738Z,0.44
2023-01-28T04:12:00.764Z,0.48
2023-01-28T04:22:08.382Z,0.49
2023-01-28T04:32:14.676Z,0.79
2023-01-28T04:42:20.994Z,0.79
2023-01-28T04:52:27.309Z,1.35
2023-01-28T05:02:33.668Z,1.51
2023-01-28T05:12:40.025Z,1.05
2023-01-28T05:22:46.330Z,0.91
2023-01-28T05:32:56.380Z,0.87
2023-01-28T05:43:02.731Z,1.35
2023-01-28T05:53:09.075Z,2.20
2023-01-28T06:03:15.518Z,1.64
2023-01-28T06:13:21.929Z,0.94
2023-01-28T06:23:28.272Z,1.03
2023-01-28T06:33:34.563Z,0.86
2023-01-28T06:43:40.886Z,0.94
2023-01-28T06:53:47.212Z,0.55
2023-01-28T07:03:53.533Z,0.42
2023-01-28T07:13:59.931Z,0.38
2023-01-28T07:24:07.384Z,0.34
2023-01-28T07:34:14.048Z,0.53
2023-01-28T07:44:20.423Z,0.52
2023-01-28T07:54:26.714Z,0.95
2023-01-28T08:04:33.078Z,1.28
2023-01-28T08:14:39.499Z,0.98
2023-01-28T08:24:45.817Z,0.82
2023-01-28T08:34:52.207Z,0.95
2023-01-28T08:44:58.482Z,0.96
2023-01-28T08:55:05.126Z,1.00
2023-01-28T09:05:12.161Z,1.02
2023-01-28T09:15:19.105Z,1.04
2023-01-28T09:25:25.408Z,1.07
2023-01-28T09:35:31.775Z,1.15
2023-01-28T09:45:41.668Z,0.96
2023-01-28T09:55:51.734Z,1.30
2023-01-28T10:05:57.936Z,1.39
2023-01-28T10:16:17.901Z,1.35
2023-01-28T10:26:34.490Z,1.58
2023-01-28T10:36:40.991Z,1.70
2023-01-28T10:46:48.572Z,1.57
2023-01-28T10:57:04.327Z,1.72
2023-01-28T11:07:21.981Z,1.91
2023-01-28T11:17:31.491Z,1.73
2023-01-28T11:27:38.492Z,1.82
2023-01-28T11:37:49.824Z,1.98
2023-01-28T11:48:01.866Z,2.26
2023-01-28T11:58:53.385Z,1.85
2023-01-28T12:09:14.754Z,1.73
2023-01-28T12:19:30.964Z,2.12
2023-01-28T12:29:51.975Z,2.12
2023-01-28T12:40:27.708Z,1.96
2023-01-28T12:50:44.387Z,1.94
2023-01-28T13:00:53.145Z,2.02
2023-01-28T13:11:03.375Z,1.46
2023-01-28T13:21:16.612Z,1.64
2023-01-28T13:31:24.830Z,1.49
2023-01-28T13:41:42.438Z,1.57
2023-01-28T13:51:59.903Z,1.76
2023-01-28T14:02:30.690Z,1.75
2023-01-28T14:12:55.758Z,1.61
2023-01-28T14:23:19.990Z,1.74
2023-01-28T14:33:26.903Z,1.67
2023-01-28T14:43:33.598Z,1.70
2023-01-28T14:53:52.929Z,1.69
2023-01-28T15:03:59.432Z,1.75
2023-01-28T15:14:06.573Z,1.64
2023-01-28T15:24:17.210Z,1.64
2023-01-28T15:34:31.212Z,1.65
2023-01-28T15:44:45.564Z,1.60
2023-01-28T15:54:53.257Z,1.64
2023-01-28T16:05:03.331Z,1.61
2023-01-28T16:15:19.616Z,1.50
2023-01-28T16:25:31.032Z,1.56
2023-01-28T16:36:01.328Z,1.51
2023-01-28T16:46:07.909Z,1.37
2023-01-28T16:56:30.689Z,1.42
2023-01-28T17:06:47.647Z,1.50
2023-01-28T17:16:54.082Z,1.50
2023-01-28T17:27:00.433Z,1.15
2023-01-28T17:37:06.848Z,1.33
2023-01-28T17:47:13.158Z,1.22
2023-01-28T17:57:19.478Z,1.26
2023-01-28T18:07:25.842Z,1.25
2023-01-28T18:17:32.162Z,1.28
2023-01-28T18:27:38.514Z,1.24
2023-01-28T18:37:44.910Z,1.22
2023-01-28T18:47:51.300Z,1.33
2023-01-28T18:57:58.115Z,1.32
2023-01-28T19:08:06.778Z,1.47
2023-01-28T19:18:13.073Z,1.53
2023-01-28T19:28:19.985Z,1.44
2023-01-28T19:38:28.188Z,1.23
2023-01-28T19:48:34.615Z,1.39
2023-01-28T19:58:42.853Z,1.35
2023-01-28T20:08:54.148Z,1.28
2023-01-28T20:19:02.979Z,1.35
2023-01-28T20:29:19.184Z,1.35
2023-01-28T20:39:25.740Z,1.35
2023-01-28T20:49:32.823Z,1.34
2023-01-28T20:59:39.213Z,1.26
2023-01-28T21:09:45.745Z,1.11
2023-01-28T21:19:52.143Z,1.15
2023-01-28T21:29:58.583Z,1.22
2023-01-28T21:40:06.164Z,1.02
2023-01-28T21:50:12.757Z,0.90
2023-01-28T22:00:19.666Z,1.03
2023-01-28T22:10:26.164Z,0.80
2023-01-28T22:20:32.456Z,0.84
2023-01-28T22:30:38.806Z,0.69
2023-01-28T22:40:45.070Z,0.59
2023-01-28T22:50:51.348Z,0.55
2023-01-28T23:00:57.705Z,0.57
2023-01-28T23:11:04.424Z,0.50
2023-01-28T23:21:38.438Z,0.42
2023-01-28T23:31:47.883Z,0.37
2023-01-28T23:41:54.297Z,0.38
2023-01-28T23:52:00.705Z,0.36
